Pagrindinis puslapis
METAR-TAF:

METAR-TAF

Oro uostai :

Pantelerija, Italija

platuma: 36-49N, ilguma: 011-58E, Aukštis: 191 m

Dabartinis oras

Ataskaita buvo paskelbta 1 valandą ir 11 minutes, ne 05:50 UTC
Vėjas 10 kt iš Pietų/Pietryčių
Temperatūra 21°C
Drėgmė 64%
Slėgis 1012 hPa
Matomumas 10 km arba daugiau
nėra debesų žemiau 1500 m ir nėra kamuolinių lietaus debesų

METAR: LICG 070550Z 15010KT CAVOK 21/14 Q1012

Laikas: 09:01 (07:01 UTC)

Prognozė

Ataskaita buvo paskelbta 2 valandos ir 1 minutes, ne 05:00 UTC
Prognozė galioja nuo 07 metu 06 UTC su 07 metu 15 UTC
Vėjas 15 kt iš Pietų
Matomumas 10 km arba daugiau
Išsisklaidę debesys ne aukštis 2500 ft
Laikinai
nuo 07 metu 06 UTC su 07 metu 09 UTC
lietus

TAF: LICG 070500Z 0706/0715 18015KT 9999 SCT025 TEMPO 0706/0709 RA

Orai ataskaitas ir orų prognozės (METAR, TAF).

turimą stotys yra geltonos ir raudonos taškus žemėlapyje.

Perkelti pele per norėdami pamatyti stoties vardą.

Tada spustelėkite, norėdami matyti oro stebėjimo ir prognozės.

Norėdami pakeisti žemėlapį: spustelėkite ant žalios mygtukų su juodo kryžiaus žemyn,; žalią mygtuką su brūkšneliu, jei norite nutolinti; arba žalių rodyklių gretimoms žemėlapius.


METAR-TAF: